createdAt,value
2023-02-19T00:00:06.193Z,929.23
2023-02-19T00:01:06.087Z,929.29
2023-02-19T00:02:06.197Z,929.30
2023-02-19T00:03:06.217Z,929.29
2023-02-19T00:04:06.121Z,929.30
2023-02-19T00:05:06.162Z,929.35
2023-02-19T00:06:06.315Z,929.30
2023-02-19T00:07:06.125Z,929.38
2023-02-19T00:08:06.128Z,929.33
2023-02-19T00:09:06.144Z,929.40
2023-02-19T00:10:06.462Z,929.39
2023-02-19T00:11:06.342Z,929.42
2023-02-19T00:12:06.158Z,929.44
2023-02-19T00:13:07.319Z,929.46
2023-02-19T00:14:08.028Z,929.47
2023-02-19T00:15:06.896Z,929.50
2023-02-19T00:16:06.267Z,929.52
2023-02-19T00:17:06.101Z,929.52
2023-02-19T00:18:07.041Z,929.54
2023-02-19T00:19:07.848Z,929.50
2023-02-19T00:20:06.014Z,929.54
2023-02-19T00:21:06.224Z,929.51
2023-02-19T00:22:06.353Z,929.54
2023-02-19T00:23:05.934Z,929.58
2023-02-19T00:24:05.939Z,929.54
2023-02-19T00:25:06.252Z,929.58
2023-02-19T00:26:17.723Z,929.56
2023-02-19T00:27:06.884Z,929.65
2023-02-19T00:28:06.078Z,929.60
2023-02-19T00:29:05.906Z,929.61
2023-02-19T00:30:06.854Z,929.62
2023-02-19T00:31:05.943Z,929.62
2023-02-19T00:32:07.076Z,929.60
2023-02-19T00:33:05.717Z,929.61
2023-02-19T00:34:05.843Z,929.63
2023-02-19T00:35:06.441Z,929.64
2023-02-19T00:36:05.916Z,929.60
2023-02-19T00:37:06.946Z,929.68
2023-02-19T00:38:05.768Z,929.67
2023-02-19T00:39:05.657Z,929.65
2023-02-19T00:40:05.970Z,929.66
2023-02-19T00:41:06.903Z,929.66
2023-02-19T00:42:05.665Z,929.62
2023-02-19T00:43:05.676Z,929.62
2023-02-19T00:44:05.599Z,929.65
2023-02-19T00:45:06.725Z,929.67
2023-02-19T00:46:05.598Z,929.64
2023-02-19T00:47:05.602Z,929.63
2023-02-19T00:48:05.583Z,929.66
2023-02-19T00:49:04.583Z,929.65
2023-02-19T00:50:05.705Z,929.65
2023-02-19T00:51:05.498Z,929.64
2023-02-19T00:52:05.536Z,929.61
2023-02-19T00:53:05.541Z,929.61
2023-02-19T00:54:05.765Z,929.62
2023-02-19T00:55:05.527Z,929.63
2023-02-19T00:56:05.568Z,929.63
2023-02-19T00:57:05.471Z,929.62
2023-02-19T00:58:05.489Z,929.64
2023-02-19T00:59:05.502Z,929.63
2023-02-19T01:00:06.305Z,929.61
2023-02-19T01:01:05.393Z,929.67
2023-02-19T01:02:05.571Z,929.63
2023-02-19T01:03:05.412Z,929.60
2023-02-19T01:04:06.693Z,929.63
2023-02-19T01:05:05.529Z,929.64
2023-02-19T01:06:05.741Z,929.63
2023-02-19T01:07:05.429Z,929.65
2023-02-19T01:08:05.338Z,929.65
2023-02-19T01:09:05.450Z,929.65
2023-02-19T01:10:05.940Z,929.67
2023-02-19T01:11:05.361Z,929.70
2023-02-19T01:12:06.373Z,929.71
2023-02-19T01:13:05.267Z,929.71
2023-02-19T01:14:05.316Z,929.72
2023-02-19T01:15:05.278Z,929.76
2023-02-19T01:16:05.997Z,929.74
2023-02-19T01:17:07.541Z,929.78
2023-02-19T01:18:05.910Z,929.78
2023-02-19T01:19:05.702Z,929.80
2023-02-19T01:20:06.646Z,929.82
2023-02-19T01:21:05.527Z,929.78
2023-02-19T01:22:06.450Z,929.78
2023-02-19T01:23:06.052Z,929.77
2023-02-19T01:24:05.328Z,929.77
2023-02-19T01:25:05.931Z,929.76
2023-02-19T01:26:05.276Z,929.76
2023-02-19T01:27:05.256Z,929.73
2023-02-19T01:28:06.794Z,929.72
2023-02-19T01:29:07.933Z,929.75
2023-02-19T01:30:05.330Z,929.73
2023-02-19T01:31:05.933Z,929.70
2023-02-19T01:32:05.401Z,929.68
2023-02-19T01:33:11.951Z,929.67
2023-02-19T01:34:06.931Z,929.67
2023-02-19T01:35:05.303Z,929.64
2023-02-19T01:36:05.220Z,929.66
2023-02-19T01:37:05.321Z,929.66
2023-02-19T01:38:06.242Z,929.70
2023-02-19T01:39:05.183Z,929.65
2023-02-19T01:40:05.748Z,929.59
2023-02-19T01:41:05.741Z,929.56
2023-02-19T01:42:08.212Z,929.57
2023-02-19T01:43:06.376Z,929.61
2023-02-19T01:44:05.490Z,929.56
2023-02-19T01:45:05.065Z,929.59
2023-02-19T01:46:05.774Z,929.58
2023-02-19T01:47:06.810Z,929.53
2023-02-19T01:48:05.413Z,929.54
2023-02-19T01:49:05.527Z,929.53
2023-02-19T01:50:05.085Z,929.49
2023-02-19T01:51:04.887Z,929.49
2023-02-19T01:52:06.335Z,929.47
2023-02-19T01:53:05.003Z,929.46
2023-02-19T01:54:04.909Z,929.46
2023-02-19T01:55:05.991Z,929.46
2023-02-19T01:56:05.543Z,929.48
2023-02-19T01:57:05.036Z,929.48
2023-02-19T01:58:04.884Z,929.47
2023-02-19T01:59:04.952Z,929.49
2023-02-19T02:00:04.953Z,929.49
2023-02-19T02:01:04.838Z,929.48
2023-02-19T02:02:06.219Z,929.52
2023-02-19T02:03:05.377Z,929.52
2023-02-19T02:04:04.780Z,929.52
2023-02-19T02:05:04.775Z,929.53
2023-02-19T02:06:04.743Z,929.52
2023-02-19T02:07:05.520Z,929.54
2023-02-19T02:08:04.864Z,929.56
2023-02-19T02:09:04.758Z,929.54
2023-02-19T02:10:04.721Z,929.52
2023-02-19T02:11:04.726Z,929.56
2023-02-19T02:12:05.232Z,929.59
2023-02-19T02:13:05.189Z,929.55
2023-02-19T02:14:05.024Z,929.59
2023-02-19T02:15:04.702Z,929.51
2023-02-19T02:16:04.723Z,929.53
2023-02-19T02:17:04.614Z,929.51
2023-02-19T02:18:05.245Z,929.52
2023-02-19T02:19:05.188Z,929.46
2023-02-19T02:20:04.629Z,929.45
2023-02-19T02:21:04.739Z,929.44
2023-02-19T02:22:04.644Z,929.46
2023-02-19T02:23:05.312Z,929.45
2023-02-19T02:24:05.016Z,929.48
2023-02-19T02:25:04.561Z,929.39
2023-02-19T02:26:05.290Z,929.49
2023-02-19T02:27:04.673Z,929.46
2023-02-19T02:28:04.532Z,929.44
2023-02-19T02:29:04.539Z,929.41
2023-02-19T02:30:06.245Z,929.42
2023-02-19T02:31:05.928Z,929.47
2023-02-19T02:32:05.326Z,929.40
2023-02-19T02:33:05.291Z,929.40
2023-02-19T02:34:04.517Z,929.36
2023-02-19T02:35:04.478Z,929.48
2023-02-19T02:36:05.344Z,929.39
2023-02-19T02:37:04.488Z,929.39
2023-02-19T02:38:05.626Z,929.31
2023-02-19T02:39:04.451Z,929.33
2023-02-19T02:40:04.895Z,929.32
2023-02-19T02:41:09.824Z,929.39
2023-02-19T02:42:06.103Z,929.29
2023-02-19T02:43:04.714Z,929.33
2023-02-19T02:44:05.748Z,929.28
2023-02-19T02:45:05.206Z,929.32
2023-02-19T02:46:19.792Z,929.30
2023-02-19T02:47:06.579Z,929.33
2023-02-19T02:48:06.869Z,929.27
2023-02-19T02:49:06.047Z,929.30
2023-02-19T02:50:05.954Z,929.27
2023-02-19T02:51:06.022Z,929.30
2023-02-19T02:52:05.553Z,929.29
2023-02-19T02:53:05.784Z,929.26
2023-02-19T02:54:12.321Z,929.31
2023-02-19T02:55:08.161Z,929.28
2023-02-19T02:56:10.697Z,929.28
2023-02-19T02:57:08.245Z,929.29
2023-02-19T02:58:10.544Z,929.28
2023-02-19T02:59:11.590Z,929.26
2023-02-19T03:00:11.785Z,929.24
2023-02-19T03:01:45.581Z,929.27
2023-02-19T03:02:11.783Z,929.24
2023-02-19T03:03:10.024Z,929.23
2023-02-19T03:04:17.630Z,929.23
2023-02-19T03:05:09.119Z,929.20
2023-02-19T03:06:07.702Z,929.21
2023-02-19T03:07:27.993Z,929.20
2023-02-19T03:08:06.035Z,929.23
2023-02-19T03:09:05.504Z,929.24
2023-02-19T03:10:05.419Z,929.24
2023-02-19T03:11:08.551Z,929.19
2023-02-19T03:12:06.740Z,929.21
2023-02-19T03:13:05.833Z,929.23
2023-02-19T03:14:05.663Z,929.22
2023-02-19T03:15:07.704Z,929.24
2023-02-19T03:16:05.061Z,929.15
2023-02-19T03:17:04.823Z,929.16
2023-02-19T03:18:04.737Z,929.16
2023-02-19T03:19:05.992Z,929.09
2023-02-19T03:20:04.030Z,929.11
2023-02-19T03:21:05.060Z,929.13
2023-02-19T03:22:04.990Z,929.05
2023-02-19T03:23:05.689Z,929.08
2023-02-19T03:24:03.974Z,929.05
2023-02-19T03:25:04.059Z,929.04
2023-02-19T03:26:05.452Z,929.03
2023-02-19T03:27:04.408Z,929.06
2023-02-19T03:28:04.487Z,929.03
2023-02-19T03:29:03.881Z,929.02
2023-02-19T03:30:04.588Z,929.03
2023-02-19T03:31:04.228Z,928.98
2023-02-19T03:32:04.426Z,929.00
2023-02-19T03:33:03.915Z,929.01
2023-02-19T03:34:03.819Z,928.99
2023-02-19T03:35:04.436Z,929.01
2023-02-19T03:36:04.006Z,928.98
2023-02-19T03:37:03.825Z,928.97
2023-02-19T03:38:06.914Z,929.00
2023-02-19T03:39:03.849Z,928.94
2023-02-19T03:40:04.056Z,928.97
2023-02-19T03:41:03.764Z,928.98
2023-02-19T03:42:03.746Z,928.95
2023-02-19T03:43:04.901Z,928.96
2023-02-19T03:44:03.887Z,928.94
2023-02-19T03:45:03.712Z,928.95
2023-02-19T03:46:05.113Z,928.99
2023-02-19T03:47:03.677Z,928.89
2023-02-19T03:48:03.703Z,928.92
2023-02-19T03:49:04.325Z,928.89
2023-02-19T03:50:03.729Z,928.92
2023-02-19T03:51:04.444Z,928.90
2023-02-19T03:52:03.721Z,928.92
2023-02-19T03:53:03.546Z,928.84
2023-02-19T03:54:03.642Z,928.90
2023-02-19T03:55:03.779Z,928.91
2023-02-19T03:56:03.753Z,928.87
2023-02-19T03:57:03.544Z,928.84
2023-02-19T03:58:03.480Z,928.86
2023-02-19T03:59:03.474Z,928.88
2023-02-19T04:00:03.501Z,928.89
2023-02-19T04:03:05.277Z,928.86
2023-02-19T04:04:06.063Z,928.89
2023-02-19T04:05:06.162Z,928.88
2023-02-19T04:06:06.100Z,928.83
2023-02-19T04:07:06.119Z,928.83
2023-02-19T04:08:06.026Z,928.86
2023-02-19T04:09:05.942Z,928.76
2023-02-19T04:10:06.017Z,928.82
2023-02-19T04:11:05.916Z,928.77
2023-02-19T04:12:06.020Z,928.79
2023-02-19T04:13:05.954Z,928.76
2023-02-19T04:14:05.933Z,928.80
2023-02-19T04:15:05.927Z,928.79
2023-02-19T04:16:05.930Z,928.76
2023-02-19T04:17:05.852Z,928.80
2023-02-19T04:18:05.866Z,928.76
2023-02-19T04:19:05.871Z,928.79
2023-02-19T04:20:05.872Z,928.78
2023-02-19T04:21:05.857Z,928.80
2023-02-19T04:22:05.889Z,928.76
2023-02-19T04:23:05.795Z,928.72
2023-02-19T04:24:05.791Z,928.81
2023-02-19T04:25:05.807Z,928.80
2023-02-19T04:26:05.815Z,928.77
2023-02-19T04:27:05.800Z,928.88
2023-02-19T04:28:05.820Z,928.77
2023-02-19T04:29:05.717Z,928.77
2023-02-19T04:30:06.223Z,928.81
2023-02-19T04:31:05.825Z,928.80
2023-02-19T04:32:05.729Z,928.79
2023-02-19T04:33:05.743Z,928.79
2023-02-19T04:34:05.663Z,928.77
2023-02-19T04:35:05.753Z,928.77
2023-02-19T04:36:05.666Z,928.76
2023-02-19T04:37:05.755Z,928.70
2023-02-19T04:38:06.235Z,928.73
2023-02-19T04:39:05.576Z,928.72
2023-02-19T04:40:05.682Z,928.72
2023-02-19T04:41:05.698Z,928.74
2023-02-19T04:42:05.600Z,928.68
2023-02-19T04:43:05.614Z,928.72
2023-02-19T04:44:05.603Z,928.72
2023-02-19T04:45:05.616Z,928.70
2023-02-19T04:46:05.643Z,928.67
2023-02-19T04:47:05.548Z,928.66
2023-02-19T04:48:05.500Z,928.66
2023-02-19T04:49:05.540Z,928.66
2023-02-19T04:50:05.518Z,928.61
2023-02-19T04:51:05.557Z,928.64
2023-02-19T04:52:05.465Z,928.62
2023-02-19T04:53:05.579Z,928.65
2023-02-19T04:54:05.471Z,928.61
2023-02-19T04:55:05.474Z,928.67
2023-02-19T04:56:05.450Z,928.63
2023-02-19T04:57:05.488Z,928.65
2023-02-19T04:58:05.412Z,928.63
2023-02-19T04:59:05.405Z,928.63
2023-02-19T05:00:05.408Z,928.62
2023-02-19T05:01:05.512Z,928.62
2023-02-19T05:02:05.426Z,928.62
2023-02-19T05:03:05.330Z,928.52
2023-02-19T05:04:05.427Z,928.56
2023-02-19T05:05:05.346Z,928.56
2023-02-19T05:06:05.462Z,928.52
2023-02-19T05:07:05.468Z,928.56
2023-02-19T05:08:05.332Z,928.51
2023-02-19T05:09:05.483Z,928.54
2023-02-19T05:10:05.346Z,928.54
2023-02-19T05:11:05.358Z,928.54
2023-02-19T05:12:05.372Z,928.54
2023-02-19T05:13:05.275Z,928.55
2023-02-19T05:14:05.275Z,928.55
2023-02-19T05:15:05.277Z,928.50
2023-02-19T05:16:05.310Z,928.54
2023-02-19T05:17:05.390Z,928.54
2023-02-19T05:18:05.192Z,928.49
2023-02-19T05:19:05.257Z,928.53
2023-02-19T05:20:05.203Z,928.54
2023-02-19T05:21:05.354Z,928.55
2023-02-19T05:22:05.149Z,928.43
2023-02-19T05:23:05.472Z,928.49
2023-02-19T05:24:05.789Z,928.49
2023-02-19T05:25:05.291Z,928.53
2023-02-19T05:26:05.144Z,928.53
2023-02-19T05:27:05.210Z,928.50
2023-02-19T05:28:05.156Z,928.53
2023-02-19T05:29:05.163Z,928.55
2023-02-19T05:30:05.142Z,928.54
2023-02-19T05:31:05.119Z,928.54
2023-02-19T05:32:05.216Z,928.54
2023-02-19T05:33:05.088Z,928.52
2023-02-19T05:34:05.043Z,928.56
2023-02-19T05:35:05.041Z,928.51
2023-02-19T05:36:05.051Z,928.57
2023-02-19T05:37:05.028Z,928.54
2023-02-19T05:38:05.022Z,928.54
2023-02-19T05:39:04.989Z,928.53
2023-02-19T05:40:05.028Z,928.51
2023-02-19T05:41:05.006Z,928.56
2023-02-19T05:42:04.951Z,928.55
2023-02-19T05:43:04.968Z,928.51
2023-02-19T05:44:04.913Z,928.58
2023-02-19T05:45:04.908Z,928.53
2023-02-19T05:46:05.137Z,928.50
2023-02-19T05:47:04.881Z,928.51
2023-02-19T05:48:04.928Z,928.46
2023-02-19T05:49:04.935Z,928.46
2023-02-19T05:50:04.947Z,928.44
2023-02-19T05:51:04.923Z,928.46
2023-02-19T05:52:05.773Z,928.42
2023-02-19T05:53:04.824Z,928.42
2023-02-19T05:54:05.789Z,928.41
2023-02-19T05:55:04.781Z,928.45
2023-02-19T05:56:04.911Z,928.35
2023-02-19T05:57:04.888Z,928.38
2023-02-19T05:58:04.853Z,928.37
2023-02-19T05:59:04.812Z,928.41
2023-02-19T06:00:04.763Z,928.39
2023-02-19T06:01:04.826Z,928.32
2023-02-19T06:02:04.829Z,928.38
2023-02-19T06:03:04.829Z,928.37
2023-02-19T06:04:04.814Z,928.34
2023-02-19T06:05:04.714Z,928.37
2023-02-19T06:06:04.723Z,928.40
2023-02-19T06:07:04.766Z,928.38
2023-02-19T06:08:04.736Z,928.39
2023-02-19T06:09:04.642Z,928.43
2023-02-19T06:10:04.643Z,928.36
2023-02-19T06:11:04.750Z,928.38
2023-02-19T06:12:04.662Z,928.40
2023-02-19T06:13:04.668Z,928.38
2023-02-19T06:14:04.713Z,928.37
2023-02-19T06:15:04.573Z,928.37
2023-02-19T06:16:04.691Z,928.35
2023-02-19T06:17:04.595Z,928.34
2023-02-19T06:18:04.601Z,928.41
2023-02-19T06:19:04.608Z,928.46
2023-02-19T06:20:04.596Z,928.41
2023-02-19T06:21:04.591Z,928.43
2023-02-19T06:22:04.527Z,928.40
2023-02-19T06:23:04.530Z,928.42
2023-02-19T06:24:04.527Z,928.39
2023-02-19T06:25:05.049Z,928.38
2023-02-19T06:26:04.631Z,928.37
2023-02-19T06:27:04.565Z,928.36
2023-02-19T06:28:04.566Z,928.42
2023-02-19T06:29:04.584Z,928.39
2023-02-19T06:30:04.611Z,928.38
2023-02-19T06:31:04.531Z,928.39
2023-02-19T06:32:04.576Z,928.37
2023-02-19T06:33:04.491Z,928.37
2023-02-19T06:34:04.501Z,928.39
2023-02-19T06:35:04.412Z,928.39
2023-02-19T06:36:04.427Z,928.36
2023-02-19T06:37:04.507Z,928.39
2023-02-19T06:38:04.429Z,928.42
2023-02-19T06:39:04.441Z,928.41
2023-02-19T06:40:04.353Z,928.37
2023-02-19T06:41:04.357Z,928.41
2023-02-19T06:42:04.463Z,928.41
2023-02-19T06:43:05.378Z,928.40
2023-02-19T06:44:05.302Z,928.41
2023-02-19T06:45:04.546Z,928.42
2023-02-19T06:46:04.386Z,928.43
2023-02-19T06:47:07.037Z,928.45
2023-02-19T06:48:04.798Z,928.48
2023-02-19T06:49:04.189Z,928.48
2023-02-19T06:50:04.199Z,928.48
2023-02-19T06:51:04.300Z,928.41
2023-02-19T06:52:05.136Z,928.47
2023-02-19T06:53:04.191Z,928.50
2023-02-19T06:54:04.215Z,928.43
2023-02-19T06:55:04.105Z,928.49
2023-02-19T06:56:04.142Z,928.49
2023-02-19T06:57:04.238Z,928.57
2023-02-19T06:58:04.139Z,928.51
2023-02-19T06:59:04.254Z,928.53
2023-02-19T07:00:04.046Z,928.52
2023-02-19T07:01:04.977Z,928.61
2023-02-19T07:02:04.172Z,928.53
2023-02-19T07:03:05.610Z,928.51
2023-02-19T07:04:04.701Z,928.59
2023-02-19T07:05:04.044Z,928.62
2023-02-19T07:06:04.044Z,928.58
2023-02-19T07:07:03.977Z,928.58
2023-02-19T07:08:04.006Z,928.55
2023-02-19T07:09:03.915Z,928.60
2023-02-19T07:10:03.920Z,928.52
2023-02-19T07:11:04.021Z,928.57
2023-02-19T07:12:03.937Z,928.63
2023-02-19T07:13:03.889Z,928.60
2023-02-19T07:14:03.907Z,928.59
2023-02-19T07:15:03.860Z,928.64
2023-02-19T07:16:03.896Z,928.62
2023-02-19T07:17:03.858Z,928.63
2023-02-19T07:18:03.867Z,928.63
2023-02-19T07:19:03.832Z,928.61
2023-02-19T07:20:04.197Z,928.64
2023-02-19T07:21:03.784Z,928.65
2023-02-19T07:22:03.885Z,928.66
2023-02-19T07:23:03.789Z,928.66
2023-02-19T07:24:03.756Z,928.65
2023-02-19T07:25:03.765Z,928.68
2023-02-19T07:26:03.767Z,928.69
2023-02-19T07:27:03.773Z,928.74
2023-02-19T07:28:03.779Z,928.70
2023-02-19T07:29:03.681Z,928.63
2023-02-19T07:30:03.757Z,928.68
2023-02-19T07:31:04.280Z,928.71
2023-02-19T07:32:03.752Z,928.70
2023-02-19T07:33:03.973Z,928.69
2023-02-19T07:34:03.723Z,928.76
2023-02-19T07:35:04.183Z,928.70
2023-02-19T07:36:07.427Z,928.70
2023-02-19T07:37:04.494Z,928.79
2023-02-19T07:38:05.496Z,928.69
2023-02-19T07:39:03.799Z,928.74
2023-02-19T07:40:05.326Z,928.79
2023-02-19T07:41:04.747Z,928.80
2023-02-19T07:42:04.394Z,928.77
2023-02-19T07:43:04.506Z,928.81
2023-02-19T07:44:03.706Z,928.83
2023-02-19T07:45:05.273Z,928.80
2023-02-19T07:46:05.147Z,928.80
2023-02-19T07:47:04.123Z,928.83
2023-02-19T07:48:04.650Z,928.82
2023-02-19T07:49:03.826Z,928.86
2023-02-19T07:50:03.535Z,928.78
2023-02-19T07:51:03.758Z,928.88
2023-02-19T07:52:03.854Z,928.90
2023-02-19T07:53:04.167Z,928.91
2023-02-19T07:54:03.470Z,928.90
2023-02-19T07:55:03.870Z,928.94
2023-02-19T07:56:04.286Z,928.99
2023-02-19T07:57:03.430Z,928.99
2023-02-19T07:58:06.099Z,928.97
2023-02-19T07:59:03.386Z,929.02
2023-02-19T08:00:03.501Z,929.04
2023-02-19T08:01:03.419Z,929.01
2023-02-19T08:02:03.409Z,928.98
2023-02-19T08:03:03.528Z,928.98
2023-02-19T08:04:03.434Z,929.00
2023-02-19T08:05:03.485Z,929.01
2023-02-19T08:06:03.538Z,928.99
2023-02-19T08:07:03.642Z,929.04
2023-02-19T08:08:03.300Z,929.02
2023-02-19T08:09:03.289Z,929.00
2023-02-19T08:10:03.253Z,929.01
2023-02-19T08:11:03.409Z,928.99
2023-02-19T08:12:03.419Z,929.05
2023-02-19T08:13:03.441Z,929.06
2023-02-19T08:14:03.300Z,929.07
2023-02-19T08:15:03.400Z,929.08
2023-02-19T08:16:18.434Z,929.09
2023-02-19T08:17:03.379Z,929.10
2023-02-19T08:18:03.764Z,929.08
2023-02-19T08:19:03.317Z,929.09
2023-02-19T08:20:03.268Z,929.10
2023-02-19T08:21:03.271Z,929.12
2023-02-19T08:22:03.241Z,929.14
2023-02-19T08:23:03.259Z,929.14
2023-02-19T08:24:03.278Z,929.16
2023-02-19T08:25:03.165Z,929.15
2023-02-19T08:26:03.178Z,929.14
2023-02-19T08:27:03.183Z,929.15
2023-02-19T08:28:03.204Z,929.18
2023-02-19T08:29:03.324Z,929.21
2023-02-19T08:30:03.233Z,929.20
2023-02-19T08:31:03.213Z,929.21
2023-02-19T08:32:03.136Z,929.22
2023-02-19T08:33:03.233Z,929.22
2023-02-19T08:34:03.116Z,929.23
2023-02-19T08:35:03.026Z,929.24
2023-02-19T08:36:03.221Z,929.25
2023-02-19T08:37:03.349Z,929.26
2023-02-19T08:38:03.053Z,929.22
2023-02-19T08:39:03.062Z,929.23
2023-02-19T08:40:03.057Z,929.30
2023-02-19T08:41:03.376Z,929.21
2023-02-19T08:42:03.697Z,929.20
2023-02-19T08:43:02.986Z,929.27
2023-02-19T08:44:02.997Z,929.26
2023-02-19T08:45:03.024Z,929.31
2023-02-19T08:46:03.716Z,929.34
2023-02-19T08:47:03.106Z,929.36
2023-02-19T08:48:02.909Z,929.34
2023-02-19T08:49:02.942Z,929.31
2023-02-19T08:50:02.967Z,929.29
2023-02-19T08:51:03.656Z,929.32
2023-02-19T08:52:02.946Z,929.35
2023-02-19T08:53:02.964Z,929.33
2023-02-19T08:54:03.766Z,929.34
2023-02-19T08:55:02.968Z,929.33
2023-02-19T08:56:02.865Z,929.34
2023-02-19T08:57:02.865Z,929.32
2023-02-19T08:58:02.882Z,929.30
2023-02-19T08:59:03.196Z,929.34
2023-02-19T09:00:02.921Z,929.41
2023-02-19T09:01:02.957Z,929.34
2023-02-19T09:02:02.915Z,929.37
2023-02-19T09:03:02.813Z,929.39
2023-02-19T09:04:05.089Z,929.36
2023-02-19T09:05:03.024Z,929.34
2023-02-19T09:06:02.735Z,929.40
2023-02-19T09:07:02.721Z,929.38
2023-02-19T09:08:02.747Z,929.37
2023-02-19T09:09:02.858Z,929.39
2023-02-19T09:10:02.754Z,929.41
2023-02-19T09:11:03.167Z,929.40
2023-02-19T09:12:02.763Z,929.42
2023-02-19T09:13:02.753Z,929.43
2023-02-19T09:14:02.683Z,929.42
2023-02-19T09:15:03.723Z,929.43
2023-02-19T09:16:02.623Z,929.45
2023-02-19T09:17:02.591Z,929.46
2023-02-19T09:18:02.600Z,929.44
2023-02-19T09:19:02.605Z,929.49
2023-02-19T09:20:02.529Z,929.49
2023-02-19T09:21:02.533Z,929.51
2023-02-19T09:22:02.522Z,929.50
2023-02-19T09:23:02.496Z,929.56
2023-02-19T09:24:02.436Z,929.55
2023-02-19T09:25:02.589Z,929.56
2023-02-19T09:26:02.511Z,929.61
2023-02-19T09:27:02.517Z,929.59
2023-02-19T09:28:02.480Z,929.59
2023-02-19T09:29:02.491Z,929.58
2023-02-19T09:30:02.540Z,929.60
2023-02-19T09:31:02.413Z,929.63
2023-02-19T09:32:03.168Z,929.64
2023-02-19T09:33:02.454Z,929.61
2023-02-19T09:34:02.366Z,929.66
2023-02-19T09:35:02.364Z,929.61
2023-02-19T09:36:02.346Z,929.67
2023-02-19T09:37:02.319Z,929.68
2023-02-19T09:38:02.329Z,929.65
2023-02-19T09:39:02.342Z,929.67
2023-02-19T09:40:02.304Z,929.67
2023-02-19T09:41:02.300Z,929.66
2023-02-19T09:42:02.258Z,929.68
2023-02-19T09:43:02.264Z,929.69
2023-02-19T09:44:02.270Z,929.72
2023-02-19T09:45:02.386Z,929.69
2023-02-19T09:46:02.420Z,929.68
2023-02-19T09:47:02.294Z,929.71
2023-02-19T09:48:02.196Z,929.65
2023-02-19T09:49:02.217Z,929.67
2023-02-19T09:50:02.206Z,929.77
2023-02-19T09:51:02.220Z,929.71
2023-02-19T09:52:02.220Z,929.71
2023-02-19T09:53:02.191Z,929.73
2023-02-19T09:54:02.185Z,929.70
2023-02-19T09:55:02.149Z,929.72
2023-02-19T09:56:03.212Z,929.72
2023-02-19T09:57:02.103Z,929.73
2023-02-19T09:58:02.164Z,929.74
2023-02-19T09:59:02.127Z,929.74
2023-02-19T10:00:02.136Z,929.72
2023-02-19T10:01:02.078Z,929.75
2023-02-19T10:02:02.654Z,929.76
2023-02-19T10:03:02.154Z,929.79
2023-02-19T10:04:02.058Z,929.78
2023-02-19T10:05:02.083Z,929.85
2023-02-19T10:06:02.012Z,929.80
2023-02-19T10:07:02.022Z,929.87
2023-02-19T10:08:02.174Z,929.89
2023-02-19T10:09:02.081Z,929.93
2023-02-19T10:10:02.800Z,929.98
2023-02-19T10:11:02.325Z,930.01
2023-02-19T10:12:01.997Z,930.00
2023-02-19T10:13:02.842Z,930.02
2023-02-19T10:14:03.651Z,930.06
2023-02-19T10:15:02.128Z,930.14
2023-02-19T10:16:02.193Z,930.11
2023-02-19T10:17:01.931Z,930.16
2023-02-19T10:18:01.949Z,930.21
2023-02-19T10:19:01.954Z,930.25
2023-02-19T10:20:02.168Z,930.28
2023-02-19T10:21:02.172Z,930.25
2023-02-19T10:22:01.868Z,930.33
2023-02-19T10:23:01.881Z,930.32
2023-02-19T10:24:01.883Z,930.35
2023-02-19T10:25:02.189Z,930.39
2023-02-19T10:26:01.902Z,930.44
2023-02-19T10:27:01.906Z,930.39
2023-02-19T10:28:01.914Z,930.46
2023-02-19T10:29:01.823Z,930.50
2023-02-19T10:30:01.894Z,930.50
2023-02-19T10:31:01.976Z,930.57
2023-02-19T10:32:01.863Z,930.57
2023-02-19T10:33:01.857Z,930.61
2023-02-19T10:34:01.775Z,930.60
2023-02-19T10:35:01.759Z,930.61
2023-02-19T10:36:01.771Z,930.65
2023-02-19T10:37:01.781Z,930.66
2023-02-19T10:38:01.820Z,930.69
2023-02-19T10:39:01.686Z,930.71
2023-02-19T10:40:01.704Z,930.73
2023-02-19T10:41:01.698Z,930.74
2023-02-19T10:42:02.233Z,930.75
2023-02-19T10:43:01.857Z,930.79
2023-02-19T10:44:02.643Z,930.78
2023-02-19T10:45:01.782Z,930.80
2023-02-19T10:46:01.855Z,930.82
2023-02-19T10:47:02.116Z,930.79
2023-02-19T10:48:01.643Z,930.82
2023-02-19T10:49:01.776Z,930.82
2023-02-19T10:50:04.716Z,930.83
2023-02-19T10:51:01.681Z,930.85
2023-02-19T10:52:01.595Z,930.86
2023-02-19T10:53:01.795Z,930.88
2023-02-19T10:54:01.582Z,930.86
2023-02-19T10:55:01.907Z,930.87
2023-02-19T10:56:01.604Z,930.89
2023-02-19T10:57:01.617Z,930.85
2023-02-19T10:58:01.515Z,930.89
2023-02-19T10:59:01.530Z,930.90
2023-02-19T11:00:01.534Z,930.89
2023-02-19T11:01:01.742Z,930.91
2023-02-19T11:02:01.657Z,930.92
2023-02-19T11:03:01.550Z,930.92
2023-02-19T11:04:01.514Z,930.91
2023-02-19T11:05:01.531Z,930.90
2023-02-19T11:06:01.483Z,930.96
2023-02-19T11:07:01.476Z,930.92
2023-02-19T11:08:01.489Z,930.96
2023-02-19T11:09:01.401Z,930.94
2023-02-19T11:10:01.352Z,930.93
2023-02-19T11:11:01.706Z,930.91
2023-02-19T11:12:01.518Z,930.94
2023-02-19T11:13:01.413Z,930.91
2023-02-19T11:14:01.413Z,930.95
2023-02-19T11:15:01.287Z,930.94
2023-02-19T11:16:01.395Z,930.97
2023-02-19T11:17:01.407Z,930.95
2023-02-19T11:18:01.352Z,930.97
2023-02-19T11:19:01.345Z,930.98
2023-02-19T11:20:01.362Z,930.93
2023-02-19T11:21:01.266Z,930.95
2023-02-19T11:22:01.281Z,930.95
2023-02-19T11:23:01.239Z,930.94
2023-02-19T11:24:01.556Z,930.93
2023-02-19T11:25:02.108Z,930.94
2023-02-19T11:26:01.257Z,930.94
2023-02-19T11:27:01.202Z,930.93
2023-02-19T11:28:01.275Z,930.96
2023-02-19T11:29:01.199Z,930.94
2023-02-19T11:30:02.332Z,930.94
2023-02-19T11:31:01.220Z,930.97
2023-02-19T11:32:01.373Z,930.98
2023-02-19T11:33:01.090Z,930.99
2023-02-19T11:34:01.151Z,930.97
2023-02-19T11:35:01.104Z,931.00
2023-02-19T11:36:01.112Z,931.00
2023-02-19T11:37:01.125Z,931.03
2023-02-19T11:38:01.071Z,931.02
2023-02-19T11:39:01.135Z,931.03
2023-02-19T11:40:00.989Z,931.05
2023-02-19T11:41:01.061Z,931.03
2023-02-19T11:42:01.056Z,931.03
2023-02-19T11:43:01.591Z,931.05
2023-02-19T11:44:00.974Z,931.05
2023-02-19T11:45:01.079Z,931.03
2023-02-19T11:46:00.951Z,931.03
2023-02-19T11:47:00.996Z,931.05
2023-02-19T11:48:01.106Z,931.03
2023-02-19T11:49:01.004Z,931.03
2023-02-19T11:50:00.917Z,931.03
2023-02-19T11:51:01.035Z,931.04
2023-02-19T11:52:00.923Z,931.04
2023-02-19T11:53:01.253Z,931.07
2023-02-19T11:54:00.936Z,931.09
2023-02-19T11:55:00.953Z,931.12
2023-02-19T11:56:00.960Z,931.09
2023-02-19T11:57:00.851Z,931.12
2023-02-19T11:58:00.869Z,931.15
2023-02-19T11:59:01.334Z,931.12
2023-02-19T12:00:00.878Z,931.16
2023-02-19T12:01:00.884Z,931.13
2023-02-19T12:02:00.931Z,931.16
2023-02-19T12:03:00.817Z,931.14
2023-02-19T12:04:00.808Z,931.15
2023-02-19T12:05:01.278Z,931.16
2023-02-19T12:06:00.821Z,931.17
2023-02-19T12:07:00.837Z,931.18
2023-02-19T12:08:00.846Z,931.20
2023-02-19T12:09:00.738Z,931.19
2023-02-19T12:10:00.858Z,931.20
2023-02-19T12:11:00.872Z,931.20
2023-02-19T12:12:00.769Z,931.22
2023-02-19T12:13:01.788Z,931.21
2023-02-19T12:14:00.768Z,931.23
2023-02-19T12:15:00.675Z,931.22
2023-02-19T12:16:00.692Z,931.20
2023-02-19T12:17:00.685Z,931.21
2023-02-19T12:18:00.696Z,931.18
2023-02-19T12:19:00.717Z,931.18
2023-02-19T12:20:00.722Z,931.18
2023-02-19T12:21:00.611Z,931.20
2023-02-19T12:22:00.725Z,931.22
2023-02-19T12:23:00.631Z,931.19
2023-02-19T12:24:00.629Z,931.19
2023-02-19T12:25:00.641Z,931.22
2023-02-19T12:26:00.663Z,931.23
2023-02-19T12:27:00.550Z,931.24
2023-02-19T12:28:00.652Z,931.22
2023-02-19T12:29:00.567Z,931.26
2023-02-19T12:30:00.672Z,931.25